Varmdo — SMXZ — position and weather

sailwx.info

Track history (hours):
 
Tides and Currents Weather Stations Pressure Air Temp Water Temp Dewpoint Dewpoint Depression Visibility Wind Speed Wind Dir Waves Ship Positions

Varmdo

Last reported at 2016-Jun-30 20:33 UTC. Time now 2016-Jun-30 21:28 UTC.
Position N 59°20' E 018°04'.

Length 38 m; draft 2.5 m.

Type: Passenger vessel. MMSI: 265520390.

Date/timePositionNaut miles runAvg speedWind from/ knotsBaromVisibWave heightAir tempDewpointWater temp
2016-Jun-30 20:33N 59°20' E 018°04'0 0.0
2016-Jun-30 19:33N 59°20' E 018°04'0 0.0
2016-Jun-30 17:18N 59°20' E 018°04'0 0.0
2016-Jun-30 09:33N 59°20' E 018°05'0 0.2
2016-Jun-30 08:33N 59°20' E 018°04'4 0.2
2016-Jun-29 15:32N 59°20' E 018°12'4 3.9
2016-Jun-29 14:30N 59°20' E 018°05'6 0.8
2016-Jun-29 07:09N 59°22' E 018°15'610.0
2016-Jun-29 06:33N 59°19' E 018°05'0 0.3
2016-Jun-29 05:33N 59°20' E 018°05'0 0.0
2016-Jun-29 04:33N 59°20' E 018°05'0 0.0
2016-Jun-29 03:33N 59°20' E 018°05'0 0.0
2016-Jun-29 02:33N 59°20' E 018°05'0 0.0
2016-Jun-29 01:33N 59°20' E 018°05'0 0.0
2016-Jun-29 00:30N 59°20' E 018°05'0 0.0
2016-Jun-28 23:33N 59°20' E 018°05'0 0.0
2016-Jun-28 22:33N 59°20' E 018°05'0 0.0
2016-Jun-28 21:33N 59°20' E 018°05'0 0.0
2016-Jun-28 20:33N 59°20' E 018°05'0 0.1
2016-Jun-28 14:33N 59°19' E 018°05'0 0.4
2016-Jun-28 13:31N 59°20' E 018°04'0 0.0
2016-Jun-28 12:31N 59°20' E 018°04'0 0.0
2016-Jun-28 11:31N 59°20' E 018°04'0 0.0
2016-Jun-28 10:31N 59°20' E 018°04'0 0.0
2016-Jun-28 09:31N 59°20' E 018°04'0 0.0
2016-Jun-28 08:31N 59°20' E 018°04'0 0.0
2016-Jun-27 13:33N 59°20' E 018°05'3 2.5
2016-Jun-27 12:31N 59°19' E 018°10'2 0.4
2016-Jun-27 08:12N 59°20' E 018°12'4 6.0
2016-Jun-27 07:31N 59°20' E 018°05'0 0.0
2016-Jun-27 06:31N 59°20' E 018°05'3 2.9
2016-Jun-27 05:30N 59°19' E 018°10'1 0.1
2016-Jun-26 20:07N 59°20' E 018°12'4 6.7
2016-Jun-26 19:33N 59°19' E 018°05'4 0.6
2016-Jun-26 13:24N 59°20' E 018°12'4 4.6
2016-Jun-26 12:33N 59°20' E 018°04'3 3.3
2016-Jun-26 11:33N 59°20' E 018°11'1 0.3
2016-Jun-26 08:26N 59°20' E 018°12'4 4.4
2016-Jun-26 07:33N 59°19' E 018°05'0 0.0
2016-Jun-25 19:32N 59°20' E 018°05'4 0.7
2016-Jun-25 13:25N 59°20' E 018°12'4 4.4
2016-Jun-25 12:31N 59°20' E 018°04'3 3.0
2016-Jun-25 11:31N 59°19' E 018°10'1 0.4
2016-Jun-25 08:25N 59°20' E 018°12'4 4.6
2016-Jun-25 07:34N 59°20' E 018°05'0 0.0
2016-Jun-24 18:13N 59°20' E 018°05'1 0.4
2016-Jun-24 16:33N 59°19' E 018°05'1 0.1
2016-Jun-24 04:33N 59°20' E 018°04'0 0.0
2016-Jun-24 03:33N 59°20' E 018°04'0 0.0
2016-Jun-24 02:33N 59°20' E 018°04'0 0.0
2016-Jun-24 01:33N 59°20' E 018°04'0 0.0
2016-Jun-24 00:33N 59°20' E 018°04'0 0.0
2016-Jun-23 23:33N 59°20' E 018°04'0 0.0
2016-Jun-23 22:33N 59°20' E 018°04'0 0.0
2016-Jun-23 21:33N 59°20' E 018°04'0 0.0
2016-Jun-23 20:27N 59°20' E 018°04'0 0.0
2016-Jun-23 14:33N 59°20' E 018°05'0 0.2
2016-Jun-23 13:33N 59°20' E 018°05'0 0.0
2016-Jun-23 05:31N 59°20' E 018°04'0 0.0
2016-Jun-23 04:31N 59°20' E 018°04'0 0.0
2016-Jun-23 03:31N 59°20' E 018°04'0 0.0
2016-Jun-23 02:31N 59°20' E 018°04'0 0.0
2016-Jun-23 01:31N 59°20' E 018°04'0 0.0
2016-Jun-23 00:31N 59°20' E 018°04'0 0.0
2016-Jun-22 23:28N 59°20' E 018°04'0 0.0
2016-Jun-22 22:31N 59°20' E 018°04'0 0.0
2016-Jun-22 21:31N 59°20' E 018°04'0 0.0
2016-Jun-22 20:29N 59°20' E 018°04'0 0.0
2016-Jun-22 14:33N 59°20' E 018°05'0 0.2
2016-Jun-22 13:32N 59°20' E 018°05'0 0.0
2016-Jun-22 12:31N 59°20' E 018°05'0 0.0
2016-Jun-22 11:31N 59°20' E 018°05'0 0.0
2016-Jun-22 10:25N 59°20' E 018°05'0 0.0
2016-Jun-22 09:31N 59°20' E 018°05'0 0.0
2016-Jun-22 08:31N 59°20' E 018°05'0 0.0
2016-Jun-21 13:33N 59°19' E 018°05'2 2.3
2016-Jun-21 12:33N 59°19' E 018°09'2 0.4
2016-Jun-21 08:08N 59°20' E 018°12'4 5.8
2016-Jun-21 07:30N 59°20' E 018°05'0 0.0
2016-Jun-21 06:33N 59°20' E 018°05'  
Track history (hours):
 
Tides and Currents Weather Stations Pressure Air Temp Water Temp Dewpoint Dewpoint Depression Visibility Wind Speed Wind Dir Waves Ship Positions

Varmdo

Last reported at 2016-Jun-30 20:33 UTC. Time now 2016-Jun-30 21:28 UTC.
Position N 59°20' E 018°04'.

Length 38 m; draft 2.5 m.

Type: Passenger vessel. MMSI: 265520390.

Date/timePositionNaut miles runAvg speedWind from/ knotsBaromVisibWave heightAir tempDewpointWater temp
2016-Jun-30 20:33N 59°20' E 018°04'0 0.0
2016-Jun-30 19:33N 59°20' E 018°04'0 0.0
2016-Jun-30 17:18N 59°20' E 018°04'0 0.0
2016-Jun-30 09:33N 59°20' E 018°05'0 0.2
2016-Jun-30 08:33N 59°20' E 018°04'4 0.2
2016-Jun-29 15:32N 59°20' E 018°12'4 3.9
2016-Jun-29 14:30N 59°20' E 018°05'6 0.8
2016-Jun-29 07:09N 59°22' E 018°15'610.0
2016-Jun-29 06:33N 59°19' E 018°05'0 0.3
2016-Jun-29 05:33N 59°20' E 018°05'0 0.0
2016-Jun-29 04:33N 59°20' E 018°05'0 0.0
2016-Jun-29 03:33N 59°20' E 018°05'0 0.0
2016-Jun-29 02:33N 59°20' E 018°05'0 0.0
2016-Jun-29 01:33N 59°20' E 018°05'0 0.0
2016-Jun-29 00:30N 59°20' E 018°05'0 0.0
2016-Jun-28 23:33N 59°20' E 018°05'0 0.0
2016-Jun-28 22:33N 59°20' E 018°05'0 0.0
2016-Jun-28 21:33N 59°20' E 018°05'0 0.0
2016-Jun-28 20:33N 59°20' E 018°05'0 0.1
2016-Jun-28 14:33N 59°19' E 018°05'0 0.4
2016-Jun-28 13:31N 59°20' E 018°04'0 0.0
2016-Jun-28 12:31N 59°20' E 018°04'0 0.0
2016-Jun-28 11:31N 59°20' E 018°04'0 0.0
2016-Jun-28 10:31N 59°20' E 018°04'0 0.0
2016-Jun-28 09:31N 59°20' E 018°04'0 0.0
2016-Jun-28 08:31N 59°20' E 018°04'0 0.0
2016-Jun-27 13:33N 59°20' E 018°05'3 2.5
2016-Jun-27 12:31N 59°19' E 018°10'2 0.4
2016-Jun-27 08:12N 59°20' E 018°12'4 6.0
2016-Jun-27 07:31N 59°20' E 018°05'0 0.0
2016-Jun-27 06:31N 59°20' E 018°05'3 2.9
2016-Jun-27 05:30N 59°19' E 018°10'1 0.1
2016-Jun-26 20:07N 59°20' E 018°12'4 6.7
2016-Jun-26 19:33N 59°19' E 018°05'4 0.6
2016-Jun-26 13:24N 59°20' E 018°12'4 4.6
2016-Jun-26 12:33N 59°20' E 018°04'3 3.3
2016-Jun-26 11:33N 59°20' E 018°11'1 0.3
2016-Jun-26 08:26N 59°20' E 018°12'4 4.4
2016-Jun-26 07:33N 59°19' E 018°05'0 0.0
2016-Jun-25 19:32N 59°20' E 018°05'4 0.7
2016-Jun-25 13:25N 59°20' E 018°12'4 4.4
2016-Jun-25 12:31N 59°20' E 018°04'3 3.0
2016-Jun-25 11:31N 59°19' E 018°10'1 0.4
2016-Jun-25 08:25N 59°20' E 018°12'4 4.6
2016-Jun-25 07:34N 59°20' E 018°05'0 0.0
2016-Jun-24 18:13N 59°20' E 018°05'1 0.4
2016-Jun-24 16:33N 59°19' E 018°05'1 0.1
2016-Jun-24 04:33N 59°20' E 018°04'0 0.0
2016-Jun-24 03:33N 59°20' E 018°04'0 0.0
2016-Jun-24 02:33N 59°20' E 018°04'0 0.0
2016-Jun-24 01:33N 59°20' E 018°04'0 0.0
2016-Jun-24 00:33N 59°20' E 018°04'0 0.0
2016-Jun-23 23:33N 59°20' E 018°04'0 0.0
2016-Jun-23 22:33N 59°20' E 018°04'0 0.0
2016-Jun-23 21:33N 59°20' E 018°04'0 0.0
2016-Jun-23 20:27N 59°20' E 018°04'0 0.0
2016-Jun-23 14:33N 59°20' E 018°05'0 0.2
2016-Jun-23 13:33N 59°20' E 018°05'0 0.0
2016-Jun-23 05:31N 59°20' E 018°04'0 0.0
2016-Jun-23 04:31N 59°20' E 018°04'0 0.0
2016-Jun-23 03:31N 59°20' E 018°04'0 0.0
2016-Jun-23 02:31N 59°20' E 018°04'0 0.0
2016-Jun-23 01:31N 59°20' E 018°04'0 0.0
2016-Jun-23 00:31N 59°20' E 018°04'0 0.0
2016-Jun-22 23:28N 59°20' E 018°04'0 0.0
2016-Jun-22 22:31N 59°20' E 018°04'0 0.0
2016-Jun-22 21:31N 59°20' E 018°04'0 0.0
2016-Jun-22 20:29N 59°20' E 018°04'0 0.0
2016-Jun-22 14:33N 59°20' E 018°05'0 0.2
2016-Jun-22 13:32N 59°20' E 018°05'0 0.0
2016-Jun-22 12:31N 59°20' E 018°05'0 0.0
2016-Jun-22 11:31N 59°20' E 018°05'0 0.0
2016-Jun-22 10:25N 59°20' E 018°05'0 0.0
2016-Jun-22 09:31N 59°20' E 018°05'0 0.0
2016-Jun-22 08:31N 59°20' E 018°05'0 0.0
2016-Jun-21 13:33N 59°19' E 018°05'2 2.3
2016-Jun-21 12:33N 59°19' E 018°09'2 0.4
2016-Jun-21 08:08N 59°20' E 018°12'4 5.8
2016-Jun-21 07:30N 59°20' E 018°05'0 0.0
2016-Jun-21 06:33N 59°20' E 018°05'  

Dump ship's entire track history